Hiyodori — JD2366 — position and weather

sailwx.info

Track history (hours):
 
Tides and Currents Weather Stations Pressure Air Temp Water Temp Dewpoint Dewpoint Depression Visibility Wind Speed Wind Dir Waves Ship Positions

Hiyodori

Last reported at 2015-Jan-30 10:33 UTC. Time now 2015-Jan-31 04:00 UTC.
Position N 34°05' E 134°60'.

Length 88 m; draft 3.6 m.

Type: Cargo ship. MMSI: 431000132.

Date/timePositionNaut miles runAvg speedWind from/ knotsBaromVisibWave heightAir tempDewpointWater temp
2015-Jan-30 10:33N 34°05' E 134°60'1312.8
2015-Jan-30 09:32N 34°18' E 134°59'1111.7
2015-Jan-30 08:33N 34°27' E 135°07'1212.1
2015-Jan-30 07:33N 34°37' E 135°17'5 4.7
2015-Jan-30 06:33N 34°41' E 135°17'3 2.9
2015-Jan-30 05:23N 34°41' E 135°13'0 0.0
2015-Jan-30 04:29N 34°41' E 135°13'0 0.0
2015-Jan-30 03:29N 34°41' E 135°13'0 0.0
2015-Jan-30 02:29N 34°41' E 135°13'0 0.0
2015-Jan-30 01:29N 34°41' E 135°13'0 0.0
2015-Jan-30 00:23N 34°41' E 135°13'0 0.0
2015-Jan-29 23:23N 34°41' E 135°13'0 0.0
2015-Jan-29 22:29N 34°41' E 135°13'0 0.0
2015-Jan-29 21:29N 34°41' E 135°13'0 0.0
2015-Jan-29 20:29N 34°41' E 135°13'0 0.0
2015-Jan-29 19:29N 34°41' E 135°13'0 0.0
2015-Jan-29 18:29N 34°41' E 135°13'0 0.0
2015-Jan-29 17:29N 34°41' E 135°13'0 0.0
2015-Jan-29 16:29N 34°41' E 135°13'0 0.0
2015-Jan-29 15:29N 34°41' E 135°13'0 0.0
2015-Jan-29 14:29N 34°41' E 135°13'0 0.0
2015-Jan-29 13:23N 34°41' E 135°13'0 0.0
2015-Jan-29 12:17N 34°41' E 135°13'0 0.0
2015-Jan-29 11:23N 34°41' E 135°13'0 0.0
2015-Jan-29 10:17N 34°41' E 135°13'0 0.0
2015-Jan-29 09:23N 34°41' E 135°13'0 0.0
2015-Jan-29 08:29N 34°41' E 135°13'0 0.0
2015-Jan-29 07:29N 34°41' E 135°13'0 0.0
2015-Jan-29 06:29N 34°41' E 135°13'0 0.0
2015-Jan-29 05:17N 34°41' E 135°13'0 0.0
2015-Jan-29 04:29N 34°41' E 135°13'0 0.0
2015-Jan-29 03:29N 34°41' E 135°13'0 0.0
2015-Jan-29 02:23N 34°41' E 135°13'0 0.0
2015-Jan-29 01:29N 34°41' E 135°13'0 0.0
2015-Jan-29 00:29N 34°41' E 135°13'0 0.0
2015-Jan-28 23:23N 34°41' E 135°13'1 0.6
2015-Jan-28 22:33N 34°41' E 135°13'5 5.2
2015-Jan-28 21:33N 34°37' E 135°17'0 0.0
2015-Jan-28 20:33N 34°37' E 135°17'0 0.0
2015-Jan-28 19:33N 34°37' E 135°17'0 0.0
2015-Jan-28 18:33N 34°37' E 135°17'0 0.0
2015-Jan-28 17:33N 34°37' E 135°17'0 0.0
2015-Jan-28 16:33N 34°37' E 135°17'6 5.7
2015-Jan-28 15:33N 34°32' E 135°13'1111.0
2015-Jan-28 14:32N 34°23' E 135°05'10 9.9
2015-Jan-28 13:32N 34°15' E 134°59'1010.1
2015-Jan-28 12:33N 34°05' E 135°00'224 8.9
2015-Jan-27 11:15N 34°56' E 139°25'811.9
2015-Jan-27 10:33N 35°01' E 139°33'1211.6
2015-Jan-27 09:33N 35°09' E 139°43'1111.0
2015-Jan-27 08:33N 35°20' E 139°43'2 2.2
2015-Jan-27 07:32N 35°22' E 139°44'0 0.0
2015-Jan-27 06:29N 35°22' E 139°44'3 3.3
2015-Jan-27 05:31N 35°24' E 139°41'0 0.0
2015-Jan-27 04:31N 35°24' E 139°41'3 2.8
2015-Jan-27 03:33N 35°23' E 139°44'0 0.1
2015-Jan-27 02:33N 35°23' E 139°44'0 0.0
2015-Jan-27 01:33N 35°23' E 139°44'0 0.0
2015-Jan-27 00:33N 35°23' E 139°44'3 3.1
2015-Jan-26 23:33N 35°20' E 139°43'1010.2
2015-Jan-26 22:33N 35°09' E 139°46'9 9.5
2015-Jan-26 21:33N 35°02' E 139°38'10 9.6
2015-Jan-26 20:29N 34°56' E 139°28'1 0.0
2015-Jan-25 12:33N 34°56' E 139°27'1413.8
2015-Jan-25 11:33N 35°05' E 139°40'1212.2
2015-Jan-25 10:33N 35°16' E 139°45'9 8.3
2015-Jan-25 09:31N 35°24' E 139°41'0 0.0
2015-Jan-25 08:31N 35°24' E 139°41'0 0.0
2015-Jan-25 07:31N 35°24' E 139°41'6 6.5
2015-Jan-25 06:33N 35°19' E 139°44'1110.7
2015-Jan-25 05:33N 35°08' E 139°44'1312.7
2015-Jan-25 04:33N 34°60' E 139°32'23210.5
2015-Jan-24 06:33N 34°05' E 134°59'1312.9
2015-Jan-24 05:30N 34°19' E 134°59'1112.0
2015-Jan-24 04:33N 34°27' E 135°08'1212.1
2015-Jan-24 03:33N 34°37' E 135°17'4 3.8
2015-Jan-24 02:31N 34°41' E 135°17'3 2.9
2015-Jan-24 01:33N 34°40' E 135°14'4 3.6
2015-Jan-24 00:34N 34°41' E 135°18'0 0.4
2015-Jan-23 23:29N 34°41' E 135°17'0 0.0
2015-Jan-23 22:29N 34°41' E 135°17'0 0.0
2015-Jan-23 21:33N 34°41' E 135°17'0 0.0
2015-Jan-23 20:33N 34°41' E 135°17'0 0.0
2015-Jan-23 19:33N 34°41' E 135°17'5 4.9
2015-Jan-23 18:33N 34°36' E 135°17'1211.8
2015-Jan-23 17:33N 34°27' E 135°08'1211.0
2015-Jan-23 16:28N 34°18' E 134°60'1010.8
2015-Jan-23 15:33N 34°08' E 135°00'1110.9
2015-Jan-23 14:31N 33°57' E 135°01'217 9.0
2015-Jan-22 14:26N 34°53' E 139°16'1212.8
2015-Jan-22 13:31N 34°59' E 139°28'1212.5
2015-Jan-22 12:33N 35°05' E 139°41'1211.6
2015-Jan-22 11:33N 35°16' E 139°46'9 9.1
2015-Jan-22 10:31N 35°24' E 139°41'2 2.4
2015-Jan-22 09:33N 35°25' E 139°43'1 1.1
2015-Jan-22 08:33N 35°23' E 139°44'6 6.5
2015-Jan-22 07:33N 35°29' E 139°39'0 0.0
2015-Jan-22 06:33N 35°29' E 139°39'0 0.0
2015-Jan-22 05:33N 35°29' E 139°39'0 0.0
2015-Jan-22 04:33N 35°29' E 139°39'0 0.0
2015-Jan-22 03:33N 35°29' E 139°39'0 0.0
2015-Jan-22 02:33N 35°29' E 139°39'0 0.0
2015-Jan-22 01:33N 35°29' E 139°39'0 0.0
2015-Jan-22 00:33N 35°29' E 139°39'0 0.0
2015-Jan-21 23:33N 35°29' E 139°39'0 0.0
2015-Jan-21 22:48N 35°29' E 139°39'0 0.0
2015-Jan-21 22:45N 35°29' E 139°39'0 0.0
2015-Jan-21 22:33N 35°29' E 139°39'0 0.0
2015-Jan-21 21:33N 35°29' E 139°39'0 0.0
2015-Jan-21 20:33N 35°29' E 139°39'0 0.0
2015-Jan-21 19:33N 35°29' E 139°39'0 0.0
2015-Jan-21 18:33N 35°29' E 139°39'0 0.0
2015-Jan-21 17:33N 35°29' E 139°39'0 0.0
2015-Jan-21 16:33N 35°29' E 139°39'0 0.0
2015-Jan-21 15:33N 35°29' E 139°39'0 0.0
2015-Jan-21 14:33N 35°29' E 139°39'0 0.0
2015-Jan-21 13:33N 35°29' E 139°39'0 0.0
2015-Jan-21 12:33N 35°29' E 139°39'0 0.0
2015-Jan-21 11:33N 35°29' E 139°39'0 0.0
2015-Jan-21 10:33N 35°29' E 139°39'0 0.0
2015-Jan-21 09:30N 35°29' E 139°39'0 0.0
2015-Jan-21 08:33N 35°29' E 139°39'1 0.7
2015-Jan-21 07:34N 35°28' E 139°40'7 6.3
2015-Jan-21 06:31N 35°23' E 139°44'0 0.0
2015-Jan-21 05:30N 35°23' E 139°44'0 0.0
2015-Jan-21 04:34N 35°23' E 139°44'0 0.0
2015-Jan-21 03:33N 35°23' E 139°44'0 0.0
2015-Jan-21 02:33N 35°23' E 139°44'0 0.0
2015-Jan-21 01:33N 35°23' E 139°44'0 0.0
2015-Jan-21 00:33N 35°23' E 139°44'0 0.0
2015-Jan-20 23:34N 35°23' E 139°44'0 0.0
2015-Jan-20 22:33N 35°23' E 139°44'0 0.0
2015-Jan-20 21:34N 35°23' E 139°44'0 0.0
2015-Jan-20 20:33N 35°23' E 139°44'0 0.1
2015-Jan-20 19:34N 35°23' E 139°44'0 0.1
2015-Jan-20 18:33N 35°23' E 139°44'0 0.1
2015-Jan-20 17:33N 35°23' E 139°44'0 0.0
2015-Jan-20 16:33N 35°23' E 139°44'0 0.0
2015-Jan-20 15:33N 35°23' E 139°44'0 0.0
2015-Jan-20 14:34N 35°23' E 139°44'0 0.0
2015-Jan-20 13:33N 35°23' E 139°44'0 0.0
2015-Jan-20 12:33N 35°23' E 139°44'0 0.0
2015-Jan-20 11:33N 35°23' E 139°44'0 0.0
2015-Jan-20 10:34N 35°23' E 139°44'  
Track history (hours):
 
Tides and Currents Weather Stations Pressure Air Temp Water Temp Dewpoint Dewpoint Depression Visibility Wind Speed Wind Dir Waves Ship Positions

Hiyodori

Last reported at 2015-Jan-30 10:33 UTC. Time now 2015-Jan-31 04:00 UTC.
Position N 34°05' E 134°60'.

Length 88 m; draft 3.6 m.

Type: Cargo ship. MMSI: 431000132.

Date/timePositionNaut miles runAvg speedWind from/ knotsBaromVisibWave heightAir tempDewpointWater temp
2015-Jan-30 10:33N 34°05' E 134°60'1312.8
2015-Jan-30 09:32N 34°18' E 134°59'1111.7
2015-Jan-30 08:33N 34°27' E 135°07'1212.1
2015-Jan-30 07:33N 34°37' E 135°17'5 4.7
2015-Jan-30 06:33N 34°41' E 135°17'3 2.9
2015-Jan-30 05:23N 34°41' E 135°13'0 0.0
2015-Jan-30 04:29N 34°41' E 135°13'0 0.0
2015-Jan-30 03:29N 34°41' E 135°13'0 0.0
2015-Jan-30 02:29N 34°41' E 135°13'0 0.0
2015-Jan-30 01:29N 34°41' E 135°13'0 0.0
2015-Jan-30 00:23N 34°41' E 135°13'0 0.0
2015-Jan-29 23:23N 34°41' E 135°13'0 0.0
2015-Jan-29 22:29N 34°41' E 135°13'0 0.0
2015-Jan-29 21:29N 34°41' E 135°13'0 0.0
2015-Jan-29 20:29N 34°41' E 135°13'0 0.0
2015-Jan-29 19:29N 34°41' E 135°13'0 0.0
2015-Jan-29 18:29N 34°41' E 135°13'0 0.0
2015-Jan-29 17:29N 34°41' E 135°13'0 0.0
2015-Jan-29 16:29N 34°41' E 135°13'0 0.0
2015-Jan-29 15:29N 34°41' E 135°13'0 0.0
2015-Jan-29 14:29N 34°41' E 135°13'0 0.0
2015-Jan-29 13:23N 34°41' E 135°13'0 0.0
2015-Jan-29 12:17N 34°41' E 135°13'0 0.0
2015-Jan-29 11:23N 34°41' E 135°13'0 0.0
2015-Jan-29 10:17N 34°41' E 135°13'0 0.0
2015-Jan-29 09:23N 34°41' E 135°13'0 0.0
2015-Jan-29 08:29N 34°41' E 135°13'0 0.0
2015-Jan-29 07:29N 34°41' E 135°13'0 0.0
2015-Jan-29 06:29N 34°41' E 135°13'0 0.0
2015-Jan-29 05:17N 34°41' E 135°13'0 0.0
2015-Jan-29 04:29N 34°41' E 135°13'0 0.0
2015-Jan-29 03:29N 34°41' E 135°13'0 0.0
2015-Jan-29 02:23N 34°41' E 135°13'0 0.0
2015-Jan-29 01:29N 34°41' E 135°13'0 0.0
2015-Jan-29 00:29N 34°41' E 135°13'0 0.0
2015-Jan-28 23:23N 34°41' E 135°13'1 0.6
2015-Jan-28 22:33N 34°41' E 135°13'5 5.2
2015-Jan-28 21:33N 34°37' E 135°17'0 0.0
2015-Jan-28 20:33N 34°37' E 135°17'0 0.0
2015-Jan-28 19:33N 34°37' E 135°17'0 0.0
2015-Jan-28 18:33N 34°37' E 135°17'0 0.0
2015-Jan-28 17:33N 34°37' E 135°17'0 0.0
2015-Jan-28 16:33N 34°37' E 135°17'6 5.7
2015-Jan-28 15:33N 34°32' E 135°13'1111.0
2015-Jan-28 14:32N 34°23' E 135°05'10 9.9
2015-Jan-28 13:32N 34°15' E 134°59'1010.1
2015-Jan-28 12:33N 34°05' E 135°00'224 8.9
2015-Jan-27 11:15N 34°56' E 139°25'811.9
2015-Jan-27 10:33N 35°01' E 139°33'1211.6
2015-Jan-27 09:33N 35°09' E 139°43'1111.0
2015-Jan-27 08:33N 35°20' E 139°43'2 2.2
2015-Jan-27 07:32N 35°22' E 139°44'0 0.0
2015-Jan-27 06:29N 35°22' E 139°44'3 3.3
2015-Jan-27 05:31N 35°24' E 139°41'0 0.0
2015-Jan-27 04:31N 35°24' E 139°41'3 2.8
2015-Jan-27 03:33N 35°23' E 139°44'0 0.1
2015-Jan-27 02:33N 35°23' E 139°44'0 0.0
2015-Jan-27 01:33N 35°23' E 139°44'0 0.0
2015-Jan-27 00:33N 35°23' E 139°44'3 3.1
2015-Jan-26 23:33N 35°20' E 139°43'1010.2
2015-Jan-26 22:33N 35°09' E 139°46'9 9.5
2015-Jan-26 21:33N 35°02' E 139°38'10 9.6
2015-Jan-26 20:29N 34°56' E 139°28'1 0.0
2015-Jan-25 12:33N 34°56' E 139°27'1413.8
2015-Jan-25 11:33N 35°05' E 139°40'1212.2
2015-Jan-25 10:33N 35°16' E 139°45'9 8.3
2015-Jan-25 09:31N 35°24' E 139°41'0 0.0
2015-Jan-25 08:31N 35°24' E 139°41'0 0.0
2015-Jan-25 07:31N 35°24' E 139°41'6 6.5
2015-Jan-25 06:33N 35°19' E 139°44'1110.7
2015-Jan-25 05:33N 35°08' E 139°44'1312.7
2015-Jan-25 04:33N 34°60' E 139°32'23210.5
2015-Jan-24 06:33N 34°05' E 134°59'1312.9
2015-Jan-24 05:30N 34°19' E 134°59'1112.0
2015-Jan-24 04:33N 34°27' E 135°08'1212.1
2015-Jan-24 03:33N 34°37' E 135°17'4 3.8
2015-Jan-24 02:31N 34°41' E 135°17'3 2.9
2015-Jan-24 01:33N 34°40' E 135°14'4 3.6
2015-Jan-24 00:34N 34°41' E 135°18'0 0.4
2015-Jan-23 23:29N 34°41' E 135°17'0 0.0
2015-Jan-23 22:29N 34°41' E 135°17'0 0.0
2015-Jan-23 21:33N 34°41' E 135°17'0 0.0
2015-Jan-23 20:33N 34°41' E 135°17'0 0.0
2015-Jan-23 19:33N 34°41' E 135°17'5 4.9
2015-Jan-23 18:33N 34°36' E 135°17'1211.8
2015-Jan-23 17:33N 34°27' E 135°08'1211.0
2015-Jan-23 16:28N 34°18' E 134°60'1010.8
2015-Jan-23 15:33N 34°08' E 135°00'1110.9
2015-Jan-23 14:31N 33°57' E 135°01'217 9.0
2015-Jan-22 14:26N 34°53' E 139°16'1212.8
2015-Jan-22 13:31N 34°59' E 139°28'1212.5
2015-Jan-22 12:33N 35°05' E 139°41'1211.6
2015-Jan-22 11:33N 35°16' E 139°46'9 9.1
2015-Jan-22 10:31N 35°24' E 139°41'2 2.4
2015-Jan-22 09:33N 35°25' E 139°43'1 1.1
2015-Jan-22 08:33N 35°23' E 139°44'6 6.5
2015-Jan-22 07:33N 35°29' E 139°39'0 0.0
2015-Jan-22 06:33N 35°29' E 139°39'0 0.0
2015-Jan-22 05:33N 35°29' E 139°39'0 0.0
2015-Jan-22 04:33N 35°29' E 139°39'0 0.0
2015-Jan-22 03:33N 35°29' E 139°39'0 0.0
2015-Jan-22 02:33N 35°29' E 139°39'0 0.0
2015-Jan-22 01:33N 35°29' E 139°39'0 0.0
2015-Jan-22 00:33N 35°29' E 139°39'0 0.0
2015-Jan-21 23:33N 35°29' E 139°39'0 0.0
2015-Jan-21 22:48N 35°29' E 139°39'0 0.0
2015-Jan-21 22:45N 35°29' E 139°39'0 0.0
2015-Jan-21 22:33N 35°29' E 139°39'0 0.0
2015-Jan-21 21:33N 35°29' E 139°39'0 0.0
2015-Jan-21 20:33N 35°29' E 139°39'0 0.0
2015-Jan-21 19:33N 35°29' E 139°39'0 0.0
2015-Jan-21 18:33N 35°29' E 139°39'0 0.0
2015-Jan-21 17:33N 35°29' E 139°39'0 0.0
2015-Jan-21 16:33N 35°29' E 139°39'0 0.0
2015-Jan-21 15:33N 35°29' E 139°39'0 0.0
2015-Jan-21 14:33N 35°29' E 139°39'0 0.0
2015-Jan-21 13:33N 35°29' E 139°39'0 0.0
2015-Jan-21 12:33N 35°29' E 139°39'0 0.0
2015-Jan-21 11:33N 35°29' E 139°39'0 0.0
2015-Jan-21 10:33N 35°29' E 139°39'0 0.0
2015-Jan-21 09:30N 35°29' E 139°39'0 0.0
2015-Jan-21 08:33N 35°29' E 139°39'1 0.7
2015-Jan-21 07:34N 35°28' E 139°40'7 6.3
2015-Jan-21 06:31N 35°23' E 139°44'0 0.0
2015-Jan-21 05:30N 35°23' E 139°44'0 0.0
2015-Jan-21 04:34N 35°23' E 139°44'0 0.0
2015-Jan-21 03:33N 35°23' E 139°44'0 0.0
2015-Jan-21 02:33N 35°23' E 139°44'0 0.0
2015-Jan-21 01:33N 35°23' E 139°44'0 0.0
2015-Jan-21 00:33N 35°23' E 139°44'0 0.0
2015-Jan-20 23:34N 35°23' E 139°44'0 0.0
2015-Jan-20 22:33N 35°23' E 139°44'0 0.0
2015-Jan-20 21:34N 35°23' E 139°44'0 0.0
2015-Jan-20 20:33N 35°23' E 139°44'0 0.1
2015-Jan-20 19:34N 35°23' E 139°44'0 0.1
2015-Jan-20 18:33N 35°23' E 139°44'0 0.1
2015-Jan-20 17:33N 35°23' E 139°44'0 0.0
2015-Jan-20 16:33N 35°23' E 139°44'0 0.0
2015-Jan-20 15:33N 35°23' E 139°44'0 0.0
2015-Jan-20 14:34N 35°23' E 139°44'0 0.0
2015-Jan-20 13:33N 35°23' E 139°44'0 0.0
2015-Jan-20 12:33N 35°23' E 139°44'0 0.0
2015-Jan-20 11:33N 35°23' E 139°44'0 0.0
2015-Jan-20 10:34N 35°23' E 139°44'  

Dump ship's entire track history